createdAt,value
2023-05-24T00:01:12.064Z,8.60
2023-05-24T00:03:40.554Z,7.83
2023-05-24T00:06:09.069Z,8.10
2023-05-24T00:08:37.147Z,8.20
2023-05-24T00:11:07.414Z,7.70
2023-05-24T00:13:35.609Z,9.27
2023-05-24T00:16:03.776Z,7.63
2023-05-24T00:18:32.182Z,8.50
2023-05-24T00:21:00.555Z,8.97
2023-05-24T00:23:28.738Z,8.27
2023-05-24T00:25:56.893Z,8.70
2023-05-24T00:28:26.695Z,8.23
2023-05-24T00:30:54.942Z,8.70
2023-05-24T00:33:23.498Z,8.57
2023-05-24T00:35:56.525Z,8.67
2023-05-24T00:38:24.877Z,8.77
2023-05-24T00:40:53.018Z,8.83
2023-05-24T00:43:21.144Z,10.67
2023-05-24T00:46:01.885Z,8.47
2023-05-24T00:48:30.178Z,7.77
2023-05-24T00:50:59.065Z,7.67
2023-05-24T00:53:27.316Z,7.73
2023-05-24T00:55:56.662Z,7.50
2023-05-24T00:58:27.389Z,8.27
2023-05-24T01:01:00.359Z,8.17
2023-05-24T01:03:29.658Z,8.73
2023-05-24T01:05:59.073Z,7.90
2023-05-24T01:08:44.510Z,8.60
2023-05-24T01:11:23.387Z,8.30
2023-05-24T01:14:00.145Z,8.30
2023-05-24T01:16:39.406Z,8.83
2023-05-24T01:19:24.320Z,8.20
2023-05-24T01:22:09.328Z,8.33
2023-05-24T01:24:54.093Z,8.73
2023-05-24T01:27:24.942Z,8.23
2023-05-24T01:29:54.501Z,8.10
2023-05-24T01:32:22.973Z,9.03
2023-05-24T01:34:51.246Z,8.73
2023-05-24T01:37:19.439Z,8.37
2023-05-24T01:39:48.931Z,8.17
2023-05-24T01:42:27.710Z,8.60
2023-05-24T01:45:07.205Z,8.47
2023-05-24T01:47:48.420Z,8.03
2023-05-24T01:50:21.677Z,8.30
2023-05-24T01:52:53.161Z,8.30
2023-05-24T01:55:24.283Z,8.43
2023-05-24T01:58:00.133Z,8.40
2023-05-24T02:00:28.914Z,7.00
2023-05-24T02:02:58.750Z,7.87
2023-05-24T02:05:27.309Z,8.00
2023-05-24T02:07:55.456Z,8.50
2023-05-24T02:10:23.780Z,7.33
2023-05-24T02:12:53.378Z,7.80
2023-05-24T02:15:21.935Z,7.57
2023-05-24T02:17:50.496Z,7.83
2023-05-24T02:20:19.155Z,7.63
2023-05-24T02:22:47.899Z,7.90
2023-05-24T02:25:16.262Z,7.70
2023-05-24T02:27:47.283Z,7.13
2023-05-24T02:30:17.047Z,8.13
2023-05-24T02:32:45.262Z,7.50
2023-05-24T02:35:13.645Z,7.73
2023-05-24T02:37:42.298Z,7.77
2023-05-24T02:40:11.447Z,8.03
2023-05-24T02:42:39.817Z,7.53
2023-05-24T02:45:09.259Z,7.13
2023-05-24T02:47:38.879Z,8.17
2023-05-24T02:50:08.436Z,7.70
2023-05-24T02:52:36.623Z,7.37
2023-05-24T02:55:06.385Z,6.77
2023-05-24T02:57:35.199Z,8.40
2023-05-24T03:00:04.408Z,7.90
2023-05-24T03:02:34.262Z,7.00
2023-05-24T03:05:04.011Z,8.60
2023-05-24T03:07:32.191Z,7.90
2023-05-24T03:10:00.350Z,8.53
2023-05-24T03:12:28.653Z,8.50
2023-05-24T03:14:56.701Z,7.70
2023-05-24T03:17:25.051Z,8.87
2023-05-24T03:19:53.590Z,8.93
2023-05-24T03:22:23.585Z,8.67
2023-05-24T03:24:55.218Z,8.60
2023-05-24T03:27:23.489Z,8.73
2023-05-24T03:29:51.716Z,8.33
2023-05-24T03:32:19.999Z,8.90
2023-05-24T03:34:48.393Z,8.50
2023-05-24T03:37:16.615Z,9.47
2023-05-24T03:39:46.354Z,8.77
2023-05-24T03:42:14.528Z,9.47
2023-05-24T03:44:44.002Z,10.05
2023-05-24T03:47:13.834Z,9.73
2023-05-24T03:49:42.228Z,8.20
2023-05-24T03:52:10.492Z,8.80
2023-05-24T03:54:38.859Z,7.75
2023-05-24T03:57:09.216Z,8.73
2023-05-24T04:02:23.289Z,8.60
2023-05-24T04:04:51.599Z,9.63
2023-05-24T04:07:20.567Z,8.30
2023-05-24T04:09:48.789Z,6.95
2023-05-24T04:12:19.127Z,8.57
2023-05-24T04:14:47.279Z,7.07
2023-05-24T04:17:15.642Z,8.60
2023-05-24T04:19:43.818Z,7.85
2023-05-24T04:22:12.038Z,7.93
2023-05-24T04:24:40.706Z,6.95
2023-05-24T04:27:09.934Z,6.65
2023-05-24T04:29:41.324Z,7.00
2023-05-24T04:32:10.200Z,6.50
2023-05-24T04:34:42.972Z,6.38
2023-05-24T04:37:11.254Z,6.35
2023-05-24T04:39:39.370Z,6.93
2023-05-24T04:42:08.497Z,6.57
2023-05-24T04:44:36.715Z,6.72
2023-05-24T04:47:07.113Z,6.80
2023-05-24T04:49:35.764Z,5.97
2023-05-24T04:52:04.610Z,6.60
2023-05-24T04:54:32.773Z,6.82
2023-05-24T04:57:01.419Z,10.52
2023-05-24T04:59:29.635Z,6.07
2023-05-24T05:01:58.160Z,6.57
2023-05-24T05:04:28.360Z,5.65
2023-05-24T05:06:56.988Z,6.22
2023-05-24T05:09:25.233Z,5.97
2023-05-24T05:11:53.858Z,5.97
2023-05-24T05:14:21.901Z,5.80
2023-05-24T05:16:50.125Z,5.90
2023-05-24T05:19:18.321Z,5.95
2023-05-24T05:21:48.418Z,5.75
2023-05-24T05:24:17.303Z,5.03
2023-05-24T05:26:45.568Z,4.88
2023-05-24T05:29:13.760Z,6.03
2023-05-24T05:31:42.084Z,5.65
2023-05-24T05:34:10.975Z,5.78
2023-05-24T05:36:40.917Z,5.25
2023-05-24T05:39:10.788Z,5.55
2023-05-24T05:41:40.589Z,6.75
2023-05-24T05:44:08.689Z,6.05
2023-05-24T05:46:36.896Z,5.68
2023-05-24T05:49:05.330Z,5.50
2023-05-24T05:51:33.518Z,4.93
2023-05-24T05:54:01.654Z,5.50
2023-05-24T05:56:31.254Z,5.47
2023-05-24T05:58:59.432Z,5.35
2023-05-24T06:01:27.751Z,5.35
2023-05-24T06:03:56.180Z,4.70
2023-05-24T06:06:24.352Z,5.53
2023-05-24T06:08:52.571Z,4.93
2023-05-24T06:11:22.034Z,4.85
2023-05-24T06:13:51.652Z,4.82
2023-05-24T06:16:20.118Z,5.45
2023-05-24T06:19:01.212Z,5.22
2023-05-24T06:21:33.289Z,4.78
2023-05-24T06:24:02.680Z,5.03
2023-05-24T06:26:31.771Z,5.13
2023-05-24T06:29:01.751Z,5.63
2023-05-24T06:31:30.108Z,6.20
2023-05-24T06:36:29.809Z,5.30
2023-05-24T06:38:58.322Z,5.40
2023-05-24T06:41:27.241Z,5.72
2023-05-24T06:43:55.943Z,5.43
2023-05-24T06:46:25.785Z,5.93
2023-05-24T06:48:54.242Z,5.82
2023-05-24T06:51:28.990Z,8.57
2023-05-24T06:53:57.906Z,5.75
2023-05-24T06:56:27.025Z,5.35
2023-05-24T06:58:55.294Z,6.70
2023-05-24T07:01:24.305Z,5.55
2023-05-24T07:03:53.830Z,5.32
2023-05-24T07:06:22.078Z,5.57
2023-05-24T07:08:50.179Z,4.97
2023-05-24T07:11:18.497Z,5.97
2023-05-24T07:13:46.916Z,5.55
2023-05-24T07:16:14.995Z,5.60
2023-05-24T07:18:43.122Z,5.50
2023-05-24T07:21:12.674Z,5.72
2023-05-24T07:23:41.332Z,5.03
2023-05-24T07:26:10.254Z,5.20
2023-05-24T07:28:40.508Z,4.90
2023-05-24T07:31:10.428Z,5.63
2023-05-24T07:33:38.862Z,4.80
2023-05-24T07:36:07.749Z,6.22
2023-05-24T07:38:37.417Z,4.88
2023-05-24T07:41:06.426Z,4.82
2023-05-24T07:43:34.772Z,5.47
2023-05-24T07:46:02.995Z,6.43
2023-05-24T07:48:31.086Z,6.43
2023-05-24T07:50:59.516Z,4.97
2023-05-24T07:53:27.690Z,5.55
2023-05-24T07:55:57.152Z,5.53
2023-05-24T07:58:25.278Z,5.70
2023-05-24T08:00:54.095Z,5.20
2023-05-24T08:03:22.342Z,5.53
2023-05-24T08:05:50.491Z,5.15
2023-05-24T08:08:18.537Z,5.20
2023-05-24T08:10:46.942Z,4.88
2023-05-24T08:13:16.950Z,6.30
2023-05-24T08:15:45.297Z,4.07
2023-05-24T08:18:13.541Z,4.90
2023-05-24T08:20:41.931Z,4.30
2023-05-24T08:23:10.607Z,4.35
2023-05-24T08:25:39.263Z,6.18
2023-05-24T08:28:07.720Z,4.93
2023-05-24T08:30:37.186Z,3.90
2023-05-24T08:33:05.351Z,3.83
2023-05-24T08:35:33.460Z,4.35
2023-05-24T08:38:01.424Z,5.00
2023-05-24T08:40:29.502Z,3.67
2023-05-24T08:43:01.111Z,4.20
2023-05-24T08:45:31.976Z,4.70
2023-05-24T08:48:02.999Z,4.40
2023-05-24T08:50:32.848Z,4.05
2023-05-24T08:53:03.084Z,5.30
2023-05-24T08:55:33.239Z,4.20
2023-05-24T08:58:02.229Z,3.63
2023-05-24T09:00:30.311Z,4.25
2023-05-24T09:03:00.436Z,5.22
2023-05-24T09:05:31.121Z,4.72
2023-05-24T09:08:02.140Z,5.40
2023-05-24T09:10:49.213Z,4.10
2023-05-24T09:13:20.527Z,4.80
2023-05-24T09:15:48.695Z,4.13
2023-05-24T09:18:16.921Z,3.38
2023-05-24T09:20:46.842Z,3.78
2023-05-24T09:23:16.925Z,4.32
2023-05-24T09:25:45.467Z,3.78
2023-05-24T09:28:16.092Z,3.28
2023-05-24T09:30:46.035Z,4.20
2023-05-24T09:33:14.588Z,4.28
2023-05-24T09:35:43.858Z,3.78
2023-05-24T09:38:20.076Z,4.63
2023-05-24T09:40:48.119Z,3.42
2023-05-24T09:43:16.191Z,3.72
2023-05-24T09:45:46.789Z,4.13
2023-05-24T09:48:17.332Z,4.07
2023-05-24T09:50:47.601Z,4.25
2023-05-24T09:53:20.010Z,4.25
2023-05-24T09:55:48.951Z,4.15
2023-05-24T09:58:18.660Z,4.18
2023-05-24T10:00:47.301Z,4.15
2023-05-24T10:03:16.643Z,3.72
2023-05-24T10:05:46.719Z,4.25
2023-05-24T10:08:15.574Z,4.45
2023-05-24T10:10:46.866Z,4.57
2023-05-24T10:13:17.817Z,4.40
2023-05-24T10:15:46.093Z,4.38
2023-05-24T10:18:14.612Z,4.57
2023-05-24T10:20:43.237Z,4.63
2023-05-24T10:23:16.235Z,4.00
2023-05-24T10:25:53.977Z,4.38
2023-05-24T10:28:25.464Z,4.70
2023-05-24T10:31:03.700Z,4.80
2023-05-24T10:33:33.761Z,4.03
2023-05-24T10:36:02.113Z,4.55
2023-05-24T10:38:31.473Z,6.85
2023-05-24T10:41:01.853Z,4.45
2023-05-24T10:43:30.784Z,4.38
2023-05-24T10:45:59.031Z,5.28
2023-05-24T10:48:36.345Z,4.35
2023-05-24T10:51:35.624Z,4.95
2023-05-24T10:54:18.487Z,4.72
2023-05-24T10:56:49.514Z,4.28
2023-05-24T10:59:35.079Z,4.95
2023-05-24T11:02:04.448Z,4.07
2023-05-24T11:04:34.584Z,4.78
2023-05-24T11:07:04.707Z,4.70
2023-05-24T11:09:34.005Z,4.38
2023-05-24T11:12:07.697Z,4.22
2023-05-24T11:14:39.583Z,3.95
2023-05-24T11:17:10.729Z,4.28
2023-05-24T11:19:40.427Z,4.32
2023-05-24T11:22:10.119Z,3.53
2023-05-24T11:24:39.040Z,4.20
2023-05-24T11:27:09.160Z,3.75
2023-05-24T11:29:42.680Z,3.60
2023-05-24T11:32:11.547Z,3.80
2023-05-24T11:34:41.007Z,2.88
2023-05-24T11:37:09.526Z,3.42
2023-05-24T11:39:39.330Z,3.40
2023-05-24T11:42:10.114Z,4.40
2023-05-24T11:44:41.504Z,3.40
2023-05-24T11:47:09.922Z,3.88
2023-05-24T11:49:38.245Z,3.45
2023-05-24T11:52:07.692Z,3.92
2023-05-24T11:54:37.479Z,4.75
2023-05-24T11:57:06.878Z,5.45
2023-05-24T11:59:38.198Z,3.85
2023-05-24T12:02:08.879Z,4.97
2023-05-24T12:04:37.433Z,5.47
2023-05-24T12:07:06.030Z,4.93
2023-05-24T12:09:34.633Z,5.68
2023-05-24T12:12:03.216Z,4.93
2023-05-24T12:14:34.651Z,5.38
2023-05-24T12:17:05.072Z,5.80
2023-05-24T12:19:36.719Z,4.63
2023-05-24T12:22:07.418Z,13.02
2023-05-24T12:24:36.804Z,5.20
2023-05-24T12:27:08.191Z,4.28
2023-05-24T12:29:38.954Z,4.50
2023-05-24T12:32:13.986Z,3.90
2023-05-24T12:34:43.956Z,4.13
2023-05-24T12:37:13.803Z,3.65
2023-05-24T12:39:43.818Z,4.93
2023-05-24T12:42:13.575Z,3.83
2023-05-24T12:44:42.680Z,3.75
2023-05-24T12:47:13.160Z,4.60
2023-05-24T12:49:41.903Z,4.50
2023-05-24T12:52:09.994Z,6.07
2023-05-24T12:54:38.620Z,4.80
2023-05-24T12:57:07.309Z,5.07
2023-05-24T12:59:36.042Z,4.45
2023-05-24T13:02:04.522Z,4.20
2023-05-24T13:04:36.248Z,3.63
2023-05-24T13:07:04.762Z,4.82
2023-05-24T13:09:34.438Z,4.93
2023-05-24T13:12:03.135Z,4.90
2023-05-24T13:14:31.478Z,3.78
2023-05-24T13:16:59.747Z,3.80
2023-05-24T13:19:28.019Z,3.70
2023-05-24T13:21:59.742Z,3.83
2023-05-24T13:24:29.047Z,3.88
2023-05-24T13:26:57.972Z,4.22
2023-05-24T13:31:58.496Z,4.25
2023-05-24T13:34:27.194Z,3.65
2023-05-24T13:37:00.196Z,3.33
2023-05-24T13:39:28.879Z,3.30
2023-05-24T13:41:57.592Z,3.38
2023-05-24T13:44:25.771Z,3.50
2023-05-24T13:46:56.885Z,3.75
2023-05-24T13:49:25.278Z,5.47
2023-05-24T13:51:57.218Z,4.30
2023-05-24T13:54:28.414Z,4.57
2023-05-24T13:56:58.101Z,4.88
2023-05-24T13:59:27.282Z,4.65
2023-05-24T14:01:56.336Z,4.70
2023-05-24T14:04:24.950Z,4.80
2023-05-24T14:06:53.515Z,4.40
2023-05-24T14:09:23.916Z,4.60
2023-05-24T14:11:53.720Z,4.32
2023-05-24T14:14:58.459Z,4.30
2023-05-24T14:17:10.220Z,4.60
2023-05-24T14:19:38.664Z,5.25
2023-05-24T14:22:08.077Z,5.85
2023-05-24T14:24:36.503Z,5.97
2023-05-24T14:27:07.558Z,5.20
2023-05-24T14:29:35.869Z,4.80
2023-05-24T14:32:04.297Z,4.93
2023-05-24T14:34:32.500Z,6.00
2023-05-24T14:37:00.658Z,5.30
2023-05-24T14:39:29.035Z,4.25
2023-05-24T14:41:57.279Z,4.03
2023-05-24T14:44:28.490Z,5.07
2023-05-24T14:46:56.912Z,4.00
2023-05-24T14:49:25.524Z,4.47
2023-05-24T14:51:55.280Z,4.70
2023-05-24T14:54:24.492Z,4.70
2023-05-24T14:56:52.997Z,3.92
2023-05-24T14:59:21.180Z,4.28
2023-05-24T15:01:51.006Z,3.95
2023-05-24T15:04:19.170Z,4.30
2023-05-24T15:06:47.428Z,3.60
2023-05-24T15:09:15.703Z,4.22
2023-05-24T15:11:43.833Z,3.70
2023-05-24T15:14:12.292Z,3.47
2023-05-24T15:16:40.553Z,4.72
2023-05-24T15:19:10.587Z,4.80
2023-05-24T15:21:39.845Z,4.63
2023-05-24T15:24:08.670Z,3.83
2023-05-24T15:26:36.943Z,4.00
2023-05-24T15:29:05.415Z,5.15
2023-05-24T15:31:33.729Z,5.07
2023-05-24T15:34:01.972Z,5.35
2023-05-24T15:36:32.598Z,5.22
2023-05-24T15:39:01.977Z,4.25
2023-05-24T15:41:30.321Z,5.53
2023-05-24T15:44:00.978Z,4.68
2023-05-24T15:46:29.167Z,5.15
2023-05-24T15:48:58.010Z,4.43
2023-05-24T15:54:01.000Z,3.90
2023-05-24T15:56:29.406Z,4.32
2023-05-24T15:58:57.983Z,3.67
2023-05-24T16:01:26.462Z,3.65
2023-05-24T16:03:55.188Z,4.47
2023-05-24T16:06:23.700Z,3.60
2023-05-24T16:08:52.006Z,3.67
2023-05-24T16:11:24.766Z,3.40
2023-05-24T16:13:54.433Z,3.55
2023-05-24T16:16:23.818Z,3.75
2023-05-24T16:18:52.172Z,3.50
2023-05-24T16:21:20.253Z,4.07
2023-05-24T16:23:49.454Z,3.88
2023-05-24T16:26:18.038Z,3.63
2023-05-24T16:28:48.088Z,3.90
2023-05-24T16:31:16.492Z,4.15
2023-05-24T16:33:45.655Z,4.18
2023-05-24T16:36:13.813Z,4.03
2023-05-24T16:38:41.957Z,3.40
2023-05-24T16:41:10.500Z,3.70
2023-05-24T16:43:38.757Z,4.05
2023-05-24T16:46:08.365Z,3.75
2023-05-24T16:48:37.791Z,4.95
2023-05-24T16:51:06.020Z,4.30
2023-05-24T16:53:34.162Z,4.95
2023-05-24T16:56:02.241Z,5.03
2023-05-24T16:58:32.288Z,5.45
2023-05-24T17:01:01.057Z,4.80
2023-05-24T17:03:32.983Z,4.53
2023-05-24T17:06:04.061Z,4.78
2023-05-24T17:08:34.563Z,4.70
2023-05-24T17:11:02.675Z,4.50
2023-05-24T17:13:31.079Z,4.60
2023-05-24T17:16:00.312Z,4.05
2023-05-24T17:18:30.420Z,4.93
2023-05-24T17:21:00.895Z,4.22
2023-05-24T17:23:32.021Z,3.80
2023-05-24T17:26:03.160Z,4.03
2023-05-24T17:28:31.854Z,3.72
2023-05-24T17:31:01.872Z,4.15
2023-05-24T17:33:32.781Z,3.55
2023-05-24T17:36:03.320Z,3.88
2023-05-24T17:38:33.354Z,3.85
2023-05-24T17:41:01.757Z,3.85
2023-05-24T17:43:32.637Z,4.00
2023-05-24T17:46:06.584Z,3.78
2023-05-24T17:48:38.893Z,3.70
2023-05-24T17:51:09.241Z,4.22
2023-05-24T17:53:38.627Z,3.85
2023-05-24T17:56:07.553Z,3.85
2023-05-24T17:58:37.384Z,3.78
2023-05-24T18:01:07.168Z,4.10
2023-05-24T18:03:38.047Z,3.90
2023-05-24T18:06:07.371Z,3.88
2023-05-24T18:08:38.554Z,3.67
2023-05-24T18:11:10.550Z,3.83
2023-05-24T18:13:39.848Z,4.13
2023-05-24T18:16:08.514Z,3.92
2023-05-24T18:18:38.891Z,3.70
2023-05-24T18:21:08.241Z,3.80
2023-05-24T18:23:38.214Z,3.92
2023-05-24T18:26:08.928Z,3.80
2023-05-24T18:28:38.234Z,3.72
2023-05-24T18:31:08.621Z,3.83
2023-05-24T18:33:39.193Z,3.35
2023-05-24T18:36:08.186Z,4.10
2023-05-24T18:38:37.480Z,4.07
2023-05-24T18:41:09.442Z,4.32
2023-05-24T18:43:37.772Z,4.60
2023-05-24T18:46:06.991Z,4.63
2023-05-24T18:48:35.293Z,3.83
2023-05-24T18:51:05.205Z,4.10
2023-05-24T18:53:33.577Z,4.25
2023-05-24T18:56:02.202Z,4.10
2023-05-24T18:58:30.395Z,4.32
2023-05-24T19:00:59.018Z,4.50
2023-05-24T19:03:27.450Z,4.57
2023-05-24T19:05:56.038Z,4.13
2023-05-24T19:08:25.825Z,4.43
2023-05-24T19:10:54.047Z,5.28
2023-05-24T19:13:22.509Z,5.95
2023-05-24T19:15:50.825Z,5.57
2023-05-24T19:18:19.182Z,5.13
2023-05-24T19:20:47.390Z,4.60
2023-05-24T19:23:17.019Z,5.00
2023-05-24T19:25:50.914Z,4.63
2023-05-24T19:28:19.347Z,4.88
2023-05-24T19:30:47.968Z,5.10
2023-05-24T19:33:16.672Z,4.50
2023-05-24T19:35:47.701Z,4.70
2023-05-24T19:38:18.340Z,4.75
2023-05-24T19:40:48.136Z,4.60
2023-05-24T19:43:16.557Z,4.68
2023-05-24T19:45:45.241Z,4.50
2023-05-24T19:48:13.834Z,4.53
2023-05-24T19:50:42.584Z,4.72
2023-05-24T19:53:10.875Z,4.90
2023-05-24T19:55:39.560Z,5.40
2023-05-24T19:58:09.680Z,4.70
2023-05-24T20:00:39.940Z,5.28
2023-05-24T20:03:08.472Z,5.75
2023-05-24T20:05:36.680Z,5.57
2023-05-24T20:08:05.171Z,5.53
2023-05-24T20:10:36.732Z,5.65
2023-05-24T20:13:09.813Z,5.28
2023-05-24T20:15:38.481Z,4.97
2023-05-24T20:18:07.350Z,5.30
2023-05-24T20:20:35.986Z,5.15
2023-05-24T20:23:05.441Z,5.13
2023-05-24T20:25:33.774Z,5.63
2023-05-24T20:28:12.812Z,5.65
2023-05-24T20:30:47.947Z,5.47
2023-05-24T20:33:16.278Z,5.63
2023-05-24T20:35:44.720Z,6.13
2023-05-24T20:38:13.482Z,5.60
2023-05-24T20:40:42.063Z,6.18
2023-05-24T20:43:10.471Z,5.28
2023-05-24T20:45:38.898Z,6.18
2023-05-24T20:48:11.494Z,5.47
2023-05-24T20:50:40.050Z,5.78
2023-05-24T20:53:08.340Z,5.68
2023-05-24T20:55:36.788Z,4.88
2023-05-24T20:58:05.008Z,5.30
2023-05-24T21:00:33.844Z,6.03
2023-05-24T21:03:02.347Z,6.57
2023-05-24T21:05:36.610Z,6.32
2023-05-24T21:08:05.234Z,6.65
2023-05-24T21:10:35.533Z,6.80
2023-05-24T21:13:04.803Z,7.25
2023-05-24T21:15:36.779Z,6.63
2023-05-24T21:18:09.457Z,6.70
2023-05-24T21:20:39.663Z,6.90
2023-05-24T21:23:08.519Z,6.72
2023-05-24T21:25:37.830Z,6.72
2023-05-24T21:28:06.325Z,7.53
2023-05-24T21:30:34.832Z,6.97
2023-05-24T21:33:03.531Z,5.65
2023-05-24T21:35:32.703Z,5.97
2023-05-24T21:38:02.489Z,6.15
2023-05-24T21:40:30.894Z,7.05
2023-05-24T21:43:05.003Z,6.03
2023-05-24T21:45:33.335Z,6.70
2023-05-24T21:48:01.728Z,6.30
2023-05-24T21:50:30.213Z,6.38
2023-05-24T21:52:58.400Z,6.07
2023-05-24T21:55:29.226Z,6.72
2023-05-24T21:57:58.128Z,6.35
2023-05-24T22:00:28.110Z,6.85
2023-05-24T22:02:56.642Z,6.38
2023-05-24T22:05:27.626Z,6.53
2023-05-24T22:07:56.471Z,6.15
2023-05-24T22:10:24.859Z,6.28
2023-05-24T22:12:55.133Z,6.63
2023-05-24T22:15:23.387Z,5.88
2023-05-24T22:17:51.758Z,6.32
2023-05-24T22:20:20.360Z,5.60
2023-05-24T22:22:53.480Z,5.35
2023-05-24T22:25:22.308Z,6.60
2023-05-24T22:27:51.119Z,5.70
2023-05-24T22:30:21.065Z,6.05
2023-05-24T22:32:49.461Z,6.07
2023-05-24T22:35:18.306Z,5.72
2023-05-24T22:37:46.611Z,6.10
2023-05-24T22:40:15.350Z,5.85
2023-05-24T22:42:44.030Z,6.75
2023-05-24T22:45:14.036Z,6.32
2023-05-24T22:47:43.804Z,6.47
2023-05-24T22:50:12.362Z,6.65
2023-05-24T22:52:42.772Z,6.22
2023-05-24T22:55:11.575Z,6.43
2023-05-24T22:57:39.976Z,6.13
2023-05-24T23:00:09.979Z,6.22
2023-05-24T23:02:38.494Z,5.88
2023-05-24T23:05:09.725Z,6.28
2023-05-24T23:07:39.983Z,6.38
2023-05-24T23:10:09.478Z,5.90
2023-05-24T23:12:37.680Z,6.85
2023-05-24T23:15:06.772Z,6.93
2023-05-24T23:17:35.232Z,6.28
2023-05-24T23:20:05.194Z,6.72
2023-05-24T23:22:37.707Z,7.38
2023-05-24T23:25:06.834Z,7.00
2023-05-24T23:27:37.578Z,7.18
2023-05-24T23:30:07.628Z,7.28
2023-05-24T23:32:36.036Z,6.25
2023-05-24T23:35:04.461Z,6.60
2023-05-24T23:37:34.079Z,6.45
2023-05-24T23:40:06.403Z,6.85
2023-05-24T23:42:34.752Z,6.45
2023-05-24T23:45:03.466Z,6.25
2023-05-24T23:47:31.927Z,6.32
2023-05-24T23:50:00.178Z,6.90
2023-05-24T23:52:28.433Z,6.65
2023-05-24T23:54:58.437Z,6.40
2023-05-24T23:57:27.274Z,6.53
2023-05-24T23:59:55.592Z,6.85
